createdAt,value
2023-04-20T00:00:51.961Z,24.82
2023-04-20T00:01:51.989Z,24.82
2023-04-20T00:02:52.147Z,24.79
2023-04-20T00:03:52.299Z,24.83
2023-04-20T00:04:52.117Z,24.81
2023-04-20T00:05:52.088Z,24.82
2023-04-20T00:06:52.171Z,24.81
2023-04-20T00:07:52.157Z,24.82
2023-04-20T00:08:52.219Z,24.81
2023-04-20T00:09:52.239Z,24.82
2023-04-20T00:10:52.295Z,24.81
2023-04-20T00:11:52.303Z,24.81
2023-04-20T00:12:52.339Z,24.81
2023-04-20T00:13:52.374Z,24.81
2023-04-20T00:14:52.404Z,24.83
2023-04-20T00:15:52.441Z,24.81
2023-04-20T00:16:52.563Z,24.82
2023-04-20T00:17:52.526Z,24.82
2023-04-20T00:18:52.535Z,24.81
2023-04-20T00:19:52.578Z,24.79
2023-04-20T00:20:52.585Z,24.82
2023-04-20T00:21:52.579Z,24.81
2023-04-20T00:22:52.581Z,24.79
2023-04-20T00:23:52.638Z,24.81
2023-04-20T00:24:52.593Z,24.79
2023-04-20T00:25:52.606Z,24.81
2023-04-20T00:26:52.690Z,24.79
2023-04-20T00:27:52.628Z,24.78
2023-04-20T00:28:52.724Z,24.79
2023-04-20T00:29:52.660Z,24.78
2023-04-20T00:30:52.667Z,24.82
2023-04-20T00:31:52.657Z,24.81
2023-04-20T00:32:52.772Z,24.78
2023-04-20T00:33:52.708Z,24.78
2023-04-20T00:34:52.732Z,24.79
2023-04-20T00:35:52.764Z,24.79
2023-04-20T00:36:52.805Z,24.79
2023-04-20T00:37:52.838Z,24.78
2023-04-20T00:38:52.880Z,24.81
2023-04-20T00:39:52.924Z,24.78
2023-04-20T00:40:52.952Z,24.79
2023-04-20T00:41:52.981Z,24.78
2023-04-20T00:42:53.058Z,24.79
2023-04-20T00:43:53.063Z,24.81
2023-04-20T00:44:53.094Z,24.79
2023-04-20T00:45:53.161Z,24.78
2023-04-20T00:46:53.178Z,24.78
2023-04-20T00:47:53.233Z,24.77
2023-04-20T00:48:53.262Z,24.79
2023-04-20T00:49:53.299Z,24.77
2023-04-20T00:50:53.336Z,24.79
2023-04-20T00:51:53.384Z,24.78
2023-04-20T00:52:53.416Z,24.78
2023-04-20T00:53:53.475Z,24.78
2023-04-20T00:54:53.514Z,24.78
2023-04-20T00:55:53.567Z,24.77
2023-04-20T00:56:53.585Z,24.78
2023-04-20T00:57:53.616Z,24.78
2023-04-20T00:58:53.693Z,24.77
2023-04-20T00:59:53.713Z,24.77
2023-04-20T01:00:53.734Z,24.78
2023-04-20T01:01:53.828Z,24.74
2023-04-20T01:02:53.972Z,24.79
2023-04-20T01:03:54.113Z,24.79
2023-04-20T01:04:53.887Z,24.77
2023-04-20T01:05:53.927Z,24.77
2023-04-20T01:06:53.959Z,24.79
2023-04-20T01:07:54.010Z,24.78
2023-04-20T01:08:54.045Z,24.78
2023-04-20T01:09:54.092Z,24.77
2023-04-20T01:10:54.124Z,24.79
2023-04-20T01:11:54.161Z,24.81
2023-04-20T01:12:54.173Z,24.78
2023-04-20T01:13:54.214Z,24.79
2023-04-20T01:14:54.291Z,24.79
2023-04-20T01:15:54.302Z,24.78
2023-04-20T01:16:54.309Z,24.79
2023-04-20T01:17:54.388Z,24.75
2023-04-20T01:18:54.405Z,24.78
2023-04-20T01:19:54.420Z,24.78
2023-04-20T01:20:54.464Z,24.77
2023-04-20T01:21:54.494Z,24.79
2023-04-20T01:22:54.541Z,24.78
2023-04-20T01:23:54.562Z,24.77
2023-04-20T01:24:54.598Z,24.78
2023-04-20T01:25:54.626Z,24.77
2023-04-20T01:26:54.665Z,24.78
2023-04-20T01:27:54.685Z,24.78
2023-04-20T01:28:54.698Z,24.78
2023-04-20T01:29:54.706Z,24.77
2023-04-20T01:30:54.728Z,24.79
2023-04-20T01:31:54.852Z,24.78
2023-04-20T01:32:54.752Z,24.77
2023-04-20T01:33:54.722Z,24.78
2023-04-20T01:34:54.739Z,24.77
2023-04-20T01:35:54.736Z,24.78
2023-04-20T01:36:54.742Z,24.75
2023-04-20T01:37:54.744Z,24.81
2023-04-20T01:38:54.760Z,24.77
2023-04-20T01:39:54.836Z,24.78
2023-04-20T01:40:54.773Z,24.77
2023-04-20T01:41:54.783Z,24.78
2023-04-20T01:42:54.783Z,24.78
2023-04-20T01:43:54.798Z,24.78
2023-04-20T01:44:54.825Z,24.78
2023-04-20T01:45:54.812Z,24.77
2023-04-20T01:46:54.917Z,24.78
2023-04-20T01:47:54.874Z,24.77
2023-04-20T01:48:54.829Z,24.77
2023-04-20T01:49:54.842Z,24.78
2023-04-20T01:50:54.861Z,24.79
2023-04-20T01:51:54.892Z,24.78
2023-04-20T01:52:54.936Z,24.78
2023-04-20T01:53:54.970Z,24.77
2023-04-20T01:54:55.013Z,24.78
2023-04-20T01:55:55.061Z,24.78
2023-04-20T01:56:55.092Z,24.79
2023-04-20T01:57:55.132Z,24.79
2023-04-20T01:58:55.174Z,24.78
2023-04-20T01:59:55.209Z,24.78
2023-04-20T02:00:55.297Z,24.78
2023-04-20T02:01:55.306Z,24.79
2023-04-20T02:02:55.477Z,24.77
2023-04-20T02:03:55.516Z,24.79
2023-04-20T02:04:55.461Z,24.78
2023-04-20T02:05:55.459Z,24.79
2023-04-20T02:06:55.502Z,24.78
2023-04-20T02:07:55.538Z,24.78
2023-04-20T02:08:55.571Z,24.79
2023-04-20T02:09:55.601Z,24.75
2023-04-20T02:10:55.601Z,24.77
2023-04-20T02:11:55.597Z,24.78
2023-04-20T02:12:55.593Z,24.78
2023-04-20T02:13:55.602Z,24.77
2023-04-20T02:14:55.607Z,24.78
2023-04-20T02:15:55.641Z,24.79
2023-04-20T02:16:55.693Z,24.79
2023-04-20T02:17:55.673Z,24.79
2023-04-20T02:18:55.675Z,24.79
2023-04-20T02:19:55.660Z,24.78
2023-04-20T02:20:55.656Z,24.78
2023-04-20T02:21:55.676Z,24.79
2023-04-20T02:22:55.667Z,24.77
2023-04-20T02:23:55.682Z,24.79
2023-04-20T02:24:55.696Z,24.77
2023-04-20T02:25:55.713Z,24.78
2023-04-20T02:26:55.725Z,24.77
2023-04-20T02:27:55.722Z,24.78
2023-04-20T02:28:55.745Z,24.79
2023-04-20T02:29:55.745Z,24.77
2023-04-20T02:30:55.794Z,24.77
2023-04-20T02:31:55.760Z,24.78
2023-04-20T02:32:55.841Z,24.78
2023-04-20T02:33:55.773Z,24.81
2023-04-20T02:34:55.810Z,24.79
2023-04-20T02:35:55.795Z,24.78
2023-04-20T02:36:55.790Z,24.79
2023-04-20T02:37:55.799Z,24.78
2023-04-20T02:38:55.832Z,24.79
2023-04-20T02:39:55.818Z,24.82
2023-04-20T02:40:55.829Z,24.79
2023-04-20T02:41:55.837Z,24.78
2023-04-20T02:42:55.847Z,24.81
2023-04-20T02:43:55.857Z,24.78
2023-04-20T02:44:55.864Z,24.77
2023-04-20T02:45:55.884Z,24.77
2023-04-20T02:46:55.931Z,24.78
2023-04-20T02:47:55.953Z,24.78
2023-04-20T02:48:55.892Z,24.77
2023-04-20T02:49:55.897Z,24.77
2023-04-20T02:50:55.930Z,24.77
2023-04-20T02:51:55.915Z,24.79
2023-04-20T02:52:55.920Z,24.77
2023-04-20T02:53:55.917Z,24.78
2023-04-20T02:54:55.922Z,24.79
2023-04-20T02:55:55.931Z,24.79
2023-04-20T02:56:58.028Z,24.77
2023-04-20T02:57:55.919Z,24.79
2023-04-20T02:58:55.921Z,24.77
2023-04-20T02:59:55.902Z,24.78
2023-04-20T03:00:55.895Z,24.78
2023-04-20T03:01:56.005Z,24.79
2023-04-20T03:02:56.033Z,24.77
2023-04-20T03:03:56.019Z,24.79
2023-04-20T03:04:55.893Z,24.77
2023-04-20T03:05:56.673Z,24.77
2023-04-20T03:06:55.891Z,24.77
2023-04-20T03:07:55.846Z,24.78
2023-04-20T03:08:55.838Z,24.77
2023-04-20T03:09:55.826Z,24.79
2023-04-20T03:10:55.809Z,24.79
2023-04-20T03:11:55.816Z,24.77
2023-04-20T03:12:55.817Z,24.77
2023-04-20T03:13:55.801Z,24.78
2023-04-20T03:14:55.798Z,24.78
2023-04-20T03:15:55.850Z,24.78
2023-04-20T03:16:55.771Z,24.77
2023-04-20T03:17:55.836Z,24.79
2023-04-20T03:18:55.757Z,24.78
2023-04-20T03:19:55.742Z,24.77
2023-04-20T03:20:55.742Z,24.77
2023-04-20T03:21:55.728Z,24.78
2023-04-20T03:22:55.746Z,24.77
2023-04-20T03:23:55.726Z,24.79
2023-04-20T03:24:55.731Z,24.79
2023-04-20T03:25:55.745Z,24.77
2023-04-20T03:26:55.746Z,24.79
2023-04-20T03:27:55.757Z,24.78
2023-04-20T03:28:55.761Z,24.79
2023-04-20T03:29:55.764Z,24.79
2023-04-20T03:30:55.774Z,24.79
2023-04-20T03:31:55.868Z,24.82
2023-04-20T03:32:55.862Z,24.82
2023-04-20T03:33:55.799Z,24.83
2023-04-20T03:34:55.785Z,24.82
2023-04-20T03:35:55.786Z,24.86
2023-04-20T03:36:55.773Z,24.86
2023-04-20T03:37:55.775Z,24.88
2023-04-20T03:38:55.785Z,24.89
2023-04-20T03:39:55.758Z,24.89
2023-04-20T03:40:55.756Z,24.90
2023-04-20T03:41:55.753Z,24.92
2023-04-20T03:42:55.745Z,24.93
2023-04-20T03:43:55.743Z,24.96
2023-04-20T03:44:55.742Z,24.95
2023-04-20T03:45:55.818Z,24.96
2023-04-20T03:46:55.781Z,24.96
2023-04-20T03:47:55.827Z,24.96
2023-04-20T03:48:55.847Z,24.96
2023-04-20T03:49:55.818Z,24.99
2023-04-20T03:50:55.835Z,25.00
2023-04-20T03:51:55.868Z,24.98
2023-04-20T03:52:55.894Z,25.02
2023-04-20T03:53:55.915Z,25.00
2023-04-20T03:54:55.977Z,25.02
2023-04-20T03:55:55.973Z,24.99
2023-04-20T03:56:55.982Z,25.02
2023-04-20T03:57:56.018Z,25.02
2023-04-20T03:58:56.036Z,25.02
2023-04-20T03:59:56.052Z,25.06
2023-04-20T04:00:56.071Z,25.06
2023-04-20T04:01:56.164Z,25.05
2023-04-20T04:02:56.307Z,25.05
2023-04-20T04:03:56.477Z,25.06
2023-04-20T04:04:56.305Z,25.06
2023-04-20T04:05:56.248Z,25.09
2023-04-20T04:06:56.267Z,25.09
2023-04-20T04:07:56.320Z,25.07
2023-04-20T04:08:56.348Z,25.10
2023-04-20T04:09:56.401Z,25.10
2023-04-20T04:10:56.465Z,25.10
2023-04-20T04:11:56.481Z,25.09
2023-04-20T04:12:56.528Z,25.10
2023-04-20T04:13:56.551Z,25.10
2023-04-20T04:14:56.601Z,25.12
2023-04-20T04:15:56.594Z,25.13
2023-04-20T04:16:56.665Z,25.12
2023-04-20T04:17:56.751Z,25.12
2023-04-20T04:18:56.718Z,25.10
2023-04-20T04:19:56.785Z,25.13
2023-04-20T04:20:56.826Z,25.10
2023-04-20T04:21:56.859Z,25.09
2023-04-20T04:22:56.922Z,25.12
2023-04-20T04:23:56.987Z,25.12
2023-04-20T04:24:57.049Z,25.13
2023-04-20T04:25:57.106Z,25.16
2023-04-20T04:26:57.185Z,25.12
2023-04-20T04:27:57.219Z,25.15
2023-04-20T04:28:57.295Z,25.16
2023-04-20T04:29:57.366Z,25.15
2023-04-20T04:30:57.480Z,25.13
2023-04-20T04:31:57.505Z,25.15
2023-04-20T04:32:58.568Z,25.15
2023-04-20T04:33:57.630Z,25.16
2023-04-20T04:34:57.709Z,25.17
2023-04-20T04:35:57.775Z,25.15
2023-04-20T04:36:57.806Z,25.15
2023-04-20T04:37:57.871Z,25.17
2023-04-20T04:38:57.935Z,25.16
2023-04-20T04:39:57.996Z,25.15
2023-04-20T04:40:58.060Z,25.17
2023-04-20T04:41:58.131Z,25.17
2023-04-20T04:42:58.215Z,25.16
2023-04-20T04:43:58.256Z,25.19
2023-04-20T04:44:58.325Z,25.17
2023-04-20T04:45:58.435Z,25.17
2023-04-20T04:46:58.442Z,25.19
2023-04-20T04:47:58.536Z,25.20
2023-04-20T04:48:58.574Z,25.19
2023-04-20T04:49:58.631Z,25.20
2023-04-20T04:50:58.698Z,25.19
2023-04-20T04:51:58.746Z,25.19
2023-04-20T04:52:58.818Z,25.20
2023-04-20T04:53:58.875Z,25.20
2023-04-20T04:54:58.929Z,25.20
2023-04-20T04:55:58.992Z,25.22
2023-04-20T04:56:59.074Z,25.20
2023-04-20T04:57:59.119Z,25.20
2023-04-20T04:58:59.217Z,25.23
2023-04-20T04:59:59.238Z,25.22
2023-04-20T05:00:59.293Z,25.22
2023-04-20T05:01:59.400Z,25.23
2023-04-20T05:02:59.444Z,25.23
2023-04-20T05:03:59.612Z,25.22
2023-04-20T05:04:59.313Z,25.22
2023-04-20T05:05:59.315Z,25.23
2023-04-20T05:06:59.317Z,25.23
2023-04-20T05:07:59.326Z,25.23
2023-04-20T05:08:59.313Z,25.23
2023-04-20T05:09:59.312Z,25.19
2023-04-20T05:10:59.306Z,25.20
2023-04-20T05:11:59.316Z,25.16
2023-04-20T05:12:59.328Z,25.17
2023-04-20T05:13:59.518Z,25.15
2023-04-20T05:14:59.357Z,25.12
2023-04-20T05:15:59.362Z,25.16
2023-04-20T05:16:59.348Z,25.13
2023-04-20T05:17:59.397Z,25.13
2023-04-20T05:18:59.364Z,25.13
2023-04-20T05:19:59.375Z,25.13
2023-04-20T05:20:59.386Z,25.13
2023-04-20T05:21:59.394Z,25.13
2023-04-20T05:22:59.422Z,25.10
2023-04-20T05:23:59.414Z,25.12
2023-04-20T05:24:59.438Z,25.10
2023-04-20T05:25:59.469Z,25.09
2023-04-20T05:26:59.463Z,25.07
2023-04-20T05:27:59.469Z,25.10
2023-04-20T05:28:59.559Z,25.09
2023-04-20T05:30:12.685Z,25.09
2023-04-20T05:30:59.521Z,25.10
2023-04-20T05:31:59.513Z,25.09
2023-04-20T05:32:59.543Z,25.10
2023-04-20T05:33:59.524Z,25.10
2023-04-20T05:34:59.450Z,25.09
2023-04-20T05:35:59.525Z,25.12
2023-04-20T05:36:59.437Z,25.09
2023-04-20T05:37:59.425Z,25.12
2023-04-20T05:38:59.414Z,25.10
2023-04-20T05:39:59.410Z,25.12
2023-04-20T05:40:59.579Z,25.10
2023-04-20T05:41:59.386Z,25.12
2023-04-20T05:43:00.779Z,25.10
2023-04-20T05:43:59.374Z,25.10
2023-04-20T05:44:59.415Z,25.10
2023-04-20T05:45:59.454Z,25.13
2023-04-20T05:46:59.559Z,25.12
2023-04-20T05:47:59.366Z,25.10
2023-04-20T05:48:59.530Z,25.12
2023-04-20T05:49:59.362Z,25.10
2023-04-20T05:50:59.364Z,25.13
2023-04-20T05:51:59.367Z,25.12
2023-04-20T05:52:59.413Z,25.12
2023-04-20T05:53:59.603Z,25.10
2023-04-20T05:54:59.429Z,25.10
2023-04-20T05:55:59.441Z,25.10
2023-04-20T05:56:59.461Z,25.09
2023-04-20T05:57:59.479Z,25.09
2023-04-20T05:58:59.557Z,25.09
2023-04-20T06:00:00.571Z,25.09
2023-04-20T06:00:59.525Z,25.07
2023-04-20T06:02:02.880Z,25.09
2023-04-20T06:02:59.684Z,25.07
2023-04-20T06:03:59.856Z,25.07
2023-04-20T06:04:59.816Z,25.09
2023-04-20T06:05:59.493Z,25.09
2023-04-20T06:06:59.476Z,25.09
2023-04-20T06:07:59.806Z,25.07
2023-04-20T06:09:03.134Z,25.09
2023-04-20T06:10:00.526Z,25.09
2023-04-20T06:10:59.501Z,25.09
2023-04-20T06:11:59.461Z,25.09
2023-04-20T06:12:59.438Z,25.07
2023-04-20T06:13:59.574Z,25.09
2023-04-20T06:14:59.447Z,25.09
2023-04-20T06:15:59.462Z,25.09
2023-04-20T06:16:59.403Z,25.09
2023-04-20T06:17:59.489Z,25.09
2023-04-20T06:18:59.580Z,25.09
2023-04-20T06:19:59.382Z,25.06
2023-04-20T06:20:59.324Z,25.10
2023-04-20T06:22:00.949Z,25.07
2023-04-20T06:23:00.323Z,25.06
2023-04-20T06:23:59.584Z,25.09
2023-04-20T06:24:59.292Z,25.07
2023-04-20T06:25:59.295Z,25.06
2023-04-20T06:26:59.269Z,25.07
2023-04-20T06:27:59.266Z,25.07
2023-04-20T06:28:59.593Z,25.06
2023-04-20T06:29:59.268Z,25.06
2023-04-20T06:30:59.305Z,25.07
2023-04-20T06:32:00.576Z,25.07
2023-04-20T06:32:59.262Z,25.05
2023-04-20T06:33:59.629Z,25.05
2023-04-20T06:34:59.232Z,25.07
2023-04-20T06:35:59.267Z,25.05
2023-04-20T06:36:59.580Z,25.05
2023-04-20T06:37:59.289Z,25.03
2023-04-20T06:38:59.503Z,25.05
2023-04-20T06:39:59.363Z,25.05
2023-04-20T06:40:59.416Z,25.05
2023-04-20T06:42:02.789Z,25.03
2023-04-20T06:42:59.445Z,25.05
2023-04-20T06:43:59.594Z,25.03
2023-04-20T06:44:59.586Z,25.03
2023-04-20T06:45:59.429Z,25.05
2023-04-20T06:46:59.537Z,25.02
2023-04-20T06:48:03.731Z,25.03
2023-04-20T06:49:02.805Z,25.03
2023-04-20T06:49:59.741Z,25.02
2023-04-20T06:51:14.994Z,25.03
2023-04-20T06:52:02.570Z,25.03
2023-04-20T06:52:59.395Z,25.03
2023-04-20T06:54:06.995Z,25.00
2023-04-20T06:55:06.756Z,25.02
2023-04-20T06:56:00.378Z,25.00
2023-04-20T06:56:59.332Z,24.98
2023-04-20T06:57:59.351Z,24.96
2023-04-20T06:58:59.498Z,24.99
2023-04-20T06:59:59.318Z,24.98
2023-04-20T07:00:59.276Z,24.99
2023-04-20T07:01:59.825Z,24.96
2023-04-20T07:02:59.315Z,24.98
2023-04-20T07:03:59.479Z,24.96
2023-04-20T07:04:59.397Z,24.96
2023-04-20T07:06:06.654Z,24.98
2023-04-20T07:07:00.588Z,24.98
2023-04-20T07:07:59.254Z,24.99
2023-04-20T07:08:59.570Z,24.96
2023-04-20T07:09:59.245Z,24.93
2023-04-20T07:11:31.413Z,24.93
2023-04-20T07:11:59.258Z,24.93
2023-04-20T07:12:59.273Z,24.93
2023-04-20T07:14:00.593Z,24.92
2023-04-20T07:14:59.231Z,24.92
2023-04-20T07:15:59.282Z,24.92
2023-04-20T07:17:00.611Z,24.89
2023-04-20T07:17:59.250Z,24.90
2023-04-20T07:18:59.595Z,24.92
2023-04-20T07:20:02.793Z,24.92
2023-04-20T07:20:59.242Z,24.90
2023-04-20T07:21:59.244Z,24.92
2023-04-20T07:22:59.247Z,24.92
2023-04-20T07:23:59.584Z,24.92
2023-04-20T07:24:59.221Z,24.88
2023-04-20T07:25:59.207Z,24.89
2023-04-20T07:26:59.636Z,24.90
2023-04-20T07:27:59.218Z,24.90
2023-04-20T07:29:00.218Z,24.92
2023-04-20T07:29:59.194Z,24.90
2023-04-20T07:30:59.199Z,24.92
2023-04-20T07:31:59.620Z,24.92
2023-04-20T07:32:59.257Z,24.90
2023-04-20T07:33:59.616Z,24.90
2023-04-20T07:34:59.191Z,24.93
2023-04-20T07:35:59.184Z,24.93
2023-04-20T07:36:59.180Z,24.92
2023-04-20T07:37:59.165Z,24.92
2023-04-20T07:38:59.580Z,24.90
2023-04-20T07:39:59.181Z,24.92
2023-04-20T07:40:59.137Z,24.92
2023-04-20T07:41:59.168Z,24.93
2023-04-20T07:42:59.865Z,24.90
2023-04-20T07:43:59.114Z,24.89
2023-04-20T07:44:59.135Z,24.92
2023-04-20T07:45:59.150Z,24.92
2023-04-20T07:46:59.157Z,24.89
2023-04-20T07:47:59.648Z,24.90
2023-04-20T07:48:59.118Z,24.89
2023-04-20T07:49:59.118Z,24.92
2023-04-20T07:51:00.136Z,24.90
2023-04-20T07:52:12.958Z,24.89
2023-04-20T07:52:59.613Z,24.89
2023-04-20T07:53:59.616Z,24.92
2023-04-20T07:54:59.114Z,24.89
2023-04-20T07:55:59.088Z,24.90
2023-04-20T07:56:59.069Z,24.89
2023-04-20T07:57:59.606Z,24.90
2023-04-20T07:58:59.103Z,24.93
2023-04-20T07:59:59.062Z,24.92
2023-04-20T08:00:59.091Z,24.89
2023-04-20T08:01:59.157Z,24.93
2023-04-20T08:02:59.187Z,24.92
2023-04-20T08:03:59.516Z,24.92
2023-04-20T08:04:59.256Z,24.92
2023-04-20T08:05:59.236Z,24.93
2023-04-20T08:06:59.016Z,24.90
2023-04-20T08:07:59.143Z,24.92
2023-04-20T08:08:59.023Z,24.90
2023-04-20T08:09:59.010Z,24.90
2023-04-20T08:10:59.113Z,24.90
2023-04-20T08:11:59.104Z,24.89
2023-04-20T08:12:59.011Z,24.89
2023-04-20T08:13:59.130Z,24.90
2023-04-20T08:14:58.994Z,24.89
2023-04-20T08:15:59.059Z,24.89
2023-04-20T08:16:58.996Z,24.89
2023-04-20T08:18:00.030Z,24.90
2023-04-20T08:18:59.092Z,24.89
2023-04-20T08:19:59.010Z,24.90
2023-04-20T08:20:59.002Z,24.89
2023-04-20T08:22:00.105Z,24.90
2023-04-20T08:22:59.509Z,24.90
2023-04-20T08:23:59.643Z,24.89
2023-04-20T08:24:59.309Z,24.89
2023-04-20T08:25:59.344Z,24.88
2023-04-20T08:26:59.524Z,24.89
2023-04-20T08:27:59.590Z,24.88
2023-04-20T08:28:59.591Z,24.90
2023-04-20T08:29:59.439Z,24.88
2023-04-20T08:30:59.508Z,24.89
2023-04-20T08:31:59.694Z,24.88
2023-04-20T08:32:59.631Z,24.85
2023-04-20T08:33:59.604Z,24.86
2023-04-20T08:34:59.588Z,24.85
2023-04-20T08:35:59.620Z,24.86
2023-04-20T08:36:59.650Z,24.83
2023-04-20T08:37:59.679Z,24.88
2023-04-20T08:39:00.092Z,24.83
2023-04-20T08:39:59.790Z,24.86
2023-04-20T08:40:59.766Z,24.86
2023-04-20T08:41:59.804Z,24.83
2023-04-20T08:43:00.143Z,24.85
2023-04-20T08:44:00.108Z,24.82
2023-04-20T08:45:00.900Z,24.79
2023-04-20T08:45:59.982Z,24.85
2023-04-20T08:47:00.075Z,24.82
2023-04-20T08:48:00.182Z,24.82
2023-04-20T08:49:00.031Z,24.85
2023-04-20T08:50:00.058Z,24.83
2023-04-20T08:51:00.145Z,24.83
2023-04-20T08:52:00.151Z,24.81
2023-04-20T08:53:00.617Z,24.82
2023-04-20T08:54:00.601Z,24.81
2023-04-20T08:55:00.200Z,24.81
2023-04-20T08:56:00.375Z,24.82
2023-04-20T08:57:00.254Z,24.81
2023-04-20T08:58:00.307Z,24.81
2023-04-20T08:59:00.611Z,24.82
2023-04-20T09:00:00.616Z,24.78
2023-04-20T09:01:00.344Z,24.79
2023-04-20T09:02:00.398Z,24.82
2023-04-20T09:03:00.487Z,24.78
2023-04-20T09:04:00.602Z,24.81
2023-04-20T09:05:00.657Z,24.79
2023-04-20T09:06:00.389Z,24.81
2023-04-20T09:07:00.384Z,24.79
2023-04-20T09:08:00.436Z,24.81
2023-04-20T09:09:00.414Z,24.77
2023-04-20T09:10:00.616Z,24.77
2023-04-20T09:11:00.466Z,24.78
2023-04-20T09:12:00.629Z,24.77
2023-04-20T09:13:00.429Z,24.77
2023-04-20T09:14:00.603Z,24.77
2023-04-20T09:15:00.607Z,24.78
2023-04-20T09:16:00.499Z,24.74
2023-04-20T09:17:00.456Z,24.77
2023-04-20T09:18:00.568Z,24.77
2023-04-20T09:19:00.481Z,24.79
2023-04-20T09:20:00.624Z,24.79
2023-04-20T09:21:00.496Z,24.79
2023-04-20T09:22:00.615Z,24.79
2023-04-20T09:23:00.510Z,24.79
2023-04-20T09:24:00.558Z,24.81
2023-04-20T09:25:00.606Z,24.85
2023-04-20T09:26:00.561Z,24.88
2023-04-20T09:27:00.584Z,24.89
2023-04-20T09:28:00.791Z,24.92
2023-04-20T09:29:00.693Z,24.93
2023-04-20T09:30:01.208Z,24.95
2023-04-20T09:31:00.808Z,24.96
2023-04-20T09:32:00.915Z,24.99
2023-04-20T09:33:00.973Z,24.95
2023-04-20T09:34:01.134Z,24.96
2023-04-20T09:35:01.123Z,24.99
2023-04-20T09:36:01.027Z,24.96
2023-04-20T09:37:01.051Z,24.96
2023-04-20T09:38:01.081Z,24.92
2023-04-20T09:39:01.173Z,24.93
2023-04-20T09:40:03.191Z,24.95
2023-04-20T09:41:01.144Z,24.92
2023-04-20T09:42:01.144Z,24.92
2023-04-20T09:43:01.137Z,24.90
2023-04-20T09:44:06.881Z,24.92
2023-04-20T09:45:04.139Z,24.88
2023-04-20T09:46:13.121Z,24.85
2023-04-20T09:47:01.125Z,24.88
2023-04-20T09:48:04.158Z,24.88
2023-04-20T09:49:01.119Z,24.83
2023-04-20T09:51:27.383Z,24.79
2023-04-20T09:52:20.518Z,24.82
2023-04-20T09:53:20.928Z,24.81
2023-04-20T09:54:20.900Z,24.79
2023-04-20T09:55:20.444Z,24.81
2023-04-20T09:56:20.427Z,24.79
2023-04-20T09:57:20.420Z,24.81
2023-04-20T09:58:20.505Z,24.82
2023-04-20T09:59:20.467Z,24.78
2023-04-20T10:00:20.425Z,24.79
2023-04-20T10:01:20.505Z,24.78
2023-04-20T10:02:24.468Z,24.78
2023-04-20T10:03:20.729Z,24.75
2023-04-20T10:04:21.309Z,24.79
2023-04-20T10:05:20.386Z,24.77
2023-04-20T10:06:20.360Z,24.78
2023-04-20T10:07:20.472Z,24.79
2023-04-20T10:08:20.379Z,24.79
2023-04-20T10:09:20.396Z,24.77
2023-04-20T10:10:20.451Z,24.78
2023-04-20T10:11:20.343Z,24.78
2023-04-20T10:12:20.349Z,24.75
2023-04-20T10:13:20.348Z,24.81
2023-04-20T10:14:23.443Z,24.78
2023-04-20T10:15:20.351Z,24.75
2023-04-20T10:16:20.400Z,24.78
2023-04-20T10:17:20.506Z,24.74
2023-04-20T10:18:20.624Z,24.75
2023-04-20T10:19:20.460Z,24.77
2023-04-20T10:20:20.433Z,24.74
2023-04-20T10:21:20.364Z,24.77
2023-04-20T10:22:20.371Z,24.75
2023-04-20T10:23:20.575Z,24.72
2023-04-20T10:24:20.682Z,24.71
2023-04-20T10:25:20.413Z,24.71
2023-04-20T10:26:20.384Z,24.72
2023-04-20T10:27:20.378Z,24.72
2023-04-20T10:28:20.385Z,24.72
2023-04-20T10:29:20.398Z,24.71
2023-04-20T10:30:20.543Z,24.70
2023-04-20T10:31:20.925Z,24.72
2023-04-20T10:32:20.391Z,24.70
2023-04-20T10:33:20.407Z,24.70
2023-04-20T10:34:20.402Z,24.70
2023-04-20T10:35:20.430Z,24.70
2023-04-20T10:36:20.898Z,24.71
2023-04-20T10:37:20.405Z,24.70
2023-04-20T10:38:20.398Z,24.68
2023-04-20T10:39:20.735Z,24.67
2023-04-20T10:40:20.892Z,24.70
2023-04-20T10:41:20.399Z,24.70
2023-04-20T10:42:20.879Z,24.70
2023-04-20T10:43:20.676Z,24.71
2023-04-20T10:44:21.196Z,24.72
2023-04-20T10:45:20.829Z,24.70
2023-04-20T10:46:20.445Z,24.70
2023-04-20T10:47:20.448Z,24.71
2023-04-20T10:48:20.379Z,24.70
2023-04-20T10:49:20.446Z,24.70
2023-04-20T10:50:20.363Z,24.71
2023-04-20T10:51:20.389Z,24.68
2023-04-20T10:52:20.368Z,24.71
2023-04-20T10:53:20.391Z,24.71
2023-04-20T10:54:20.418Z,24.71
2023-04-20T10:55:20.363Z,24.70
2023-04-20T10:56:20.368Z,24.72
2023-04-20T10:57:20.383Z,24.70
2023-04-20T10:58:20.372Z,24.71
2023-04-20T10:59:20.530Z,24.70
2023-04-20T11:00:20.574Z,24.72
2023-04-20T11:01:20.483Z,24.74
2023-04-20T11:02:20.729Z,24.74
2023-04-20T11:03:20.676Z,24.72
2023-04-20T11:04:20.679Z,24.74
2023-04-20T11:05:20.999Z,24.74
2023-04-20T11:06:20.751Z,24.74
2023-04-20T11:07:20.796Z,24.71
2023-04-20T11:08:20.857Z,24.74
2023-04-20T11:09:20.921Z,24.74
2023-04-20T11:10:21.412Z,24.72
2023-04-20T11:11:21.038Z,24.72
2023-04-20T11:12:21.101Z,24.74
2023-04-20T11:13:21.162Z,24.71
2023-04-20T11:14:21.210Z,24.72
2023-04-20T11:15:21.406Z,24.72
2023-04-20T11:16:21.365Z,24.72
2023-04-20T11:17:21.511Z,24.72
2023-04-20T11:18:21.554Z,24.74
2023-04-20T11:19:21.499Z,24.71
2023-04-20T11:20:21.910Z,24.75
2023-04-20T11:21:21.616Z,24.72
2023-04-20T11:22:21.909Z,24.71
2023-04-20T11:23:21.732Z,24.71
2023-04-20T11:24:21.793Z,24.70
2023-04-20T11:25:21.845Z,24.71
2023-04-20T11:26:21.903Z,24.75
2023-04-20T11:27:22.774Z,24.72
2023-04-20T11:28:22.080Z,24.74
2023-04-20T11:29:22.482Z,24.74
2023-04-20T11:30:22.402Z,24.75
2023-04-20T11:31:22.181Z,24.74
2023-04-20T11:32:22.649Z,24.74
2023-04-20T11:33:22.316Z,24.74
2023-04-20T11:34:22.232Z,24.74
2023-04-20T11:35:22.205Z,24.71
2023-04-20T11:36:22.232Z,24.71
2023-04-20T11:37:22.437Z,24.72
2023-04-20T11:38:22.257Z,24.74
2023-04-20T11:39:22.313Z,24.70
2023-04-20T11:40:22.317Z,24.71
2023-04-20T11:41:22.345Z,24.71
2023-04-20T11:42:22.359Z,24.74
2023-04-20T11:43:22.420Z,24.72
2023-04-20T11:44:22.411Z,24.72
2023-04-20T11:45:22.447Z,24.74
2023-04-20T11:46:22.469Z,24.75
2023-04-20T11:47:22.517Z,24.71
2023-04-20T11:48:22.550Z,24.72
2023-04-20T11:49:22.617Z,24.74
2023-04-20T11:50:22.984Z,24.74
2023-04-20T11:51:22.712Z,24.74
2023-04-20T11:52:22.919Z,24.74
2023-04-20T11:53:22.800Z,24.72
2023-04-20T11:54:22.872Z,24.75
2023-04-20T11:55:23.444Z,24.77
2023-04-20T11:56:23.157Z,24.75
2023-04-20T11:57:23.052Z,24.75
2023-04-20T11:58:23.096Z,24.74
2023-04-20T11:59:23.159Z,24.74
2023-04-20T12:00:23.214Z,24.75
2023-04-20T12:01:23.272Z,24.74
2023-04-20T12:02:23.452Z,24.74
2023-04-20T12:03:23.536Z,24.75
2023-04-20T12:04:24.380Z,24.77
2023-04-20T12:05:23.608Z,24.77
2023-04-20T12:06:23.711Z,24.77
2023-04-20T12:07:23.634Z,24.77
2023-04-20T12:08:23.698Z,24.75
2023-04-20T12:09:23.941Z,24.75
2023-04-20T12:10:23.923Z,24.78
2023-04-20T12:11:23.861Z,24.78
2023-04-20T12:12:23.916Z,24.75
2023-04-20T12:13:23.961Z,24.77
2023-04-20T12:14:24.051Z,24.77
2023-04-20T12:15:24.479Z,24.77
2023-04-20T12:16:24.483Z,24.75
2023-04-20T12:17:24.249Z,24.77
2023-04-20T12:18:24.255Z,24.78
2023-04-20T12:19:24.303Z,24.77
2023-04-20T12:20:24.369Z,24.75
2023-04-20T12:21:24.419Z,24.77
2023-04-20T12:22:24.512Z,24.77
2023-04-20T12:23:24.546Z,24.75
2023-04-20T12:24:24.592Z,24.75
2023-04-20T12:25:24.931Z,24.77
2023-04-20T12:26:36.934Z,24.77
2023-04-20T12:27:24.703Z,24.74
2023-04-20T12:28:24.697Z,24.78
2023-04-20T12:29:24.702Z,24.79
2023-04-20T12:30:24.938Z,24.78
2023-04-20T12:31:26.520Z,24.78
2023-04-20T12:32:24.782Z,24.78
2023-04-20T12:33:24.933Z,24.78
2023-04-20T12:34:24.690Z,24.79
2023-04-20T12:35:24.685Z,24.79
2023-04-20T12:36:24.679Z,24.79
2023-04-20T12:37:24.670Z,24.77
2023-04-20T12:38:24.705Z,24.82
2023-04-20T12:39:24.653Z,24.78
2023-04-20T12:40:24.934Z,24.78
2023-04-20T12:41:24.642Z,24.77
2023-04-20T12:42:24.635Z,24.78
2023-04-20T12:43:24.630Z,24.78
2023-04-20T12:44:24.625Z,24.77
2023-04-20T12:45:24.617Z,24.78
2023-04-20T12:46:24.682Z,24.78
2023-04-20T12:47:24.687Z,24.77
2023-04-20T12:48:24.611Z,24.79
2023-04-20T12:49:24.602Z,24.78
2023-04-20T12:50:24.941Z,24.81
2023-04-20T12:51:24.589Z,24.78
2023-04-20T12:52:24.580Z,24.79
2023-04-20T12:53:24.586Z,24.79
2023-04-20T12:54:24.677Z,24.79